KLBF/LBF METAR and TAF weather

Enter ICAO airport designator
Station Type Date Time Source
KLBF METAR 2020/09/19 20:53 UTC NOAA

KLBF 192053Z AUTO 17017G25KT 10SM CLR 29/10 A2994 RMK AO2 PK WND 16032/2025 SLP112 T02940100 56027


Station Type Date Time Source
KLBF Decoded METAR 2020/09/19 20:53 UTC NOAA

NORTH PLATTE REGIONAL AIRPORT , NE, United States (KLBF) 41-07N 100-40W 847M
Sep 19, 2020 - 04:53 PM EDT / 2020.09.19 2053 UTC
Wind: from the S (170 degrees) at 20 MPH (17 KT) gusting to 29 MPH (25 KT):0
Visibility: 10 mile(s):0
Sky conditions: clear
Temperature: 84.9 F (29.4 C)
Dew Point: 50.0 F (10.0 C)
Relative Humidity: 29%
Pressure (altimeter): 29.94 in. Hg (1013 hPa)
Pressure tendency: 0.08 inches (2.7 hPa) lower than three hours ago
ob: KLBF 192053Z AUTO 17017G25KT 10SM CLR 29/10 A2994 RMK AO2 PK WND 16032/2025 SLP112 T02940100 56027
cycle: 21

Station Type Date Time Source
KLBF TAF 2020/09/19 18:39 UTC NOAA

TAF KLBF 191736Z 1918/2018 17017G26KT P6SM SCT250
FM200200 15014KT P6SM FEW250 WS020/19050KT
FM201000 15010KT P6SM FEW150 FEW250
FM201400 19007KT P6SM SCT150

Example: see airport list